sensor_id;sensor_type;location;lat;lon;timestamp;P1;durP1;ratioP1;P2;durP2;ratioP2
19830;SDS011;10076;52.008;4.708;2023-09-18T00:00:58;46.42;;;37.03;;
19830;SDS011;10076;52.008;4.708;2023-09-18T00:03:23;43.15;;;36.97;;
19830;SDS011;10076;52.008;4.708;2023-09-18T00:05:52;43.30;;;35.75;;
19830;SDS011;10076;52.008;4.708;2023-09-18T00:08:18;46.03;;;36.05;;
19830;SDS011;10076;52.008;4.708;2023-09-18T00:10:50;42.97;;;36.30;;
19830;SDS011;10076;52.008;4.708;2023-09-18T00:13:18;42.50;;;36.30;;
19830;SDS011;10076;52.008;4.708;2023-09-18T00:15:44;43.00;;;36.80;;
19830;SDS011;10076;52.008;4.708;2023-09-18T00:18:11;40.75;;;35.85;;
19830;SDS011;10076;52.008;4.708;2023-09-18T00:20:38;44.92;;;35.45;;
19830;SDS011;10076;52.008;4.708;2023-09-18T00:23:04;44.45;;;36.78;;
19830;SDS011;10076;52.008;4.708;2023-09-18T00:25:30;44.00;;;36.25;;
19830;SDS011;10076;52.008;4.708;2023-09-18T00:27:56;42.55;;;36.00;;
19830;SDS011;10076;52.008;4.708;2023-09-18T00:30:21;43.13;;;36.88;;
19830;SDS011;10076;52.008;4.708;2023-09-18T00:32:47;46.65;;;37.03;;
19830;SDS011;10076;52.008;4.708;2023-09-18T00:35:14;42.15;;;35.72;;
19830;SDS011;10076;52.008;4.708;2023-09-18T00:37:40;45.28;;;36.80;;
19830;SDS011;10076;52.008;4.708;2023-09-18T00:40:06;44.40;;;36.90;;
19830;SDS011;10076;52.008;4.708;2023-09-18T00:42:32;44.72;;;37.35;;
19830;SDS011;10076;52.008;4.708;2023-09-18T00:44:57;45.95;;;38.90;;
19830;SDS011;10076;52.008;4.708;2023-09-18T00:47:22;44.85;;;37.15;;
19830;SDS011;10076;52.008;4.708;2023-09-18T00:49:48;43.15;;;37.53;;
19830;SDS011;10076;52.008;4.708;2023-09-18T00:52:16;42.22;;;35.67;;
19830;SDS011;10076;52.008;4.708;2023-09-18T00:54:42;45.40;;;37.10;;
19830;SDS011;10076;52.008;4.708;2023-09-18T00:57:09;44.78;;;37.28;;
19830;SDS011;10076;52.008;4.708;2023-09-18T00:59:35;43.92;;;38.58;;
19830;SDS011;10076;52.008;4.708;2023-09-18T01:02:01;44.00;;;37.08;;
19830;SDS011;10076;52.008;4.708;2023-09-18T01:04:27;46.22;;;38.45;;
19830;SDS011;10076;52.008;4.708;2023-09-18T01:06:54;44.08;;;37.90;;
19830;SDS011;10076;52.008;4.708;2023-09-18T01:09:21;44.85;;;38.03;;
19830;SDS011;10076;52.008;4.708;2023-09-18T01:11:49;46.25;;;39.40;;
19830;SDS011;10076;52.008;4.708;2023-09-18T01:14:33;42.20;;;37.58;;
19830;SDS011;10076;52.008;4.708;2023-09-18T01:17:22;44.35;;;38.05;;
19830;SDS011;10076;52.008;4.708;2023-09-18T01:19:47;44.25;;;39.35;;
19830;SDS011;10076;52.008;4.708;2023-09-18T01:22:13;44.20;;;37.88;;
19830;SDS011;10076;52.008;4.708;2023-09-18T01:24:41;44.90;;;38.63;;
19830;SDS011;10076;52.008;4.708;2023-09-18T01:27:08;44.45;;;36.67;;
19830;SDS011;10076;52.008;4.708;2023-09-18T01:29:35;43.92;;;37.58;;
19830;SDS011;10076;52.008;4.708;2023-09-18T01:32:01;44.22;;;39.30;;
19830;SDS011;10076;52.008;4.708;2023-09-18T01:34:31;47.70;;;37.65;;
19830;SDS011;10076;52.008;4.708;2023-09-18T01:37:00;45.95;;;38.10;;
19830;SDS011;10076;52.008;4.708;2023-09-18T01:39:27;41.72;;;36.65;;
19830;SDS011;10076;52.008;4.708;2023-09-18T01:41:59;42.08;;;36.67;;
19830;SDS011;10076;52.008;4.708;2023-09-18T01:44:30;44.22;;;37.20;;
19830;SDS011;10076;52.008;4.708;2023-09-18T01:46:57;46.10;;;38.08;;
19830;SDS011;10076;52.008;4.708;2023-09-18T01:49:31;46.47;;;38.70;;
19830;SDS011;10076;52.008;4.708;2023-09-18T01:51:58;44.58;;;36.72;;
19830;SDS011;10076;52.008;4.708;2023-09-18T01:54:24;49.00;;;37.17;;
19830;SDS011;10076;52.008;4.708;2023-09-18T01:56:50;45.72;;;39.13;;
19830;SDS011;10076;52.008;4.708;2023-09-18T01:59:17;45.13;;;38.30;;
19830;SDS011;10076;52.008;4.708;2023-09-18T02:01:43;44.15;;;37.28;;
19830;SDS011;10076;52.008;4.708;2023-09-18T02:04:08;41.75;;;35.38;;
19830;SDS011;10076;52.008;4.708;2023-09-18T02:06:33;43.35;;;35.33;;
19830;SDS011;10076;52.008;4.708;2023-09-18T02:08:59;44.03;;;36.47;;
19830;SDS011;10076;52.008;4.708;2023-09-18T02:11:25;42.67;;;35.92;;
19830;SDS011;10076;52.008;4.708;2023-09-18T02:13:51;43.42;;;35.95;;
19830;SDS011;10076;52.008;4.708;2023-09-18T02:16:16;44.22;;;36.05;;
19830;SDS011;10076;52.008;4.708;2023-09-18T02:18:41;47.50;;;38.47;;
19830;SDS011;10076;52.008;4.708;2023-09-18T02:21:08;45.47;;;37.13;;
19830;SDS011;10076;52.008;4.708;2023-09-18T02:23:33;44.67;;;36.88;;
19830;SDS011;10076;52.008;4.708;2023-09-18T02:25:59;43.15;;;37.42;;
19830;SDS011;10076;52.008;4.708;2023-09-18T02:28:24;42.17;;;37.65;;
19830;SDS011;10076;52.008;4.708;2023-09-18T02:30:50;43.25;;;37.22;;
19830;SDS011;10076;52.008;4.708;2023-09-18T02:33:16;41.92;;;36.83;;
19830;SDS011;10076;52.008;4.708;2023-09-18T02:35:41;43.88;;;36.17;;
19830;SDS011;10076;52.008;4.708;2023-09-18T02:38:08;45.10;;;37.30;;
19830;SDS011;10076;52.008;4.708;2023-09-18T02:40:33;43.55;;;37.13;;
19830;SDS011;10076;52.008;4.708;2023-09-18T02:42:59;44.53;;;36.22;;
19830;SDS011;10076;52.008;4.708;2023-09-18T02:45:24;40.25;;;35.60;;
19830;SDS011;10076;52.008;4.708;2023-09-18T02:47:49;44.28;;;36.83;;
19830;SDS011;10076;52.008;4.708;2023-09-18T02:50:14;44.67;;;36.53;;
19830;SDS011;10076;52.008;4.708;2023-09-18T02:52:40;43.75;;;36.33;;
19830;SDS011;10076;52.008;4.708;2023-09-18T02:55:05;43.35;;;36.13;;
19830;SDS011;10076;52.008;4.708;2023-09-18T02:57:31;40.42;;;35.20;;
19830;SDS011;10076;52.008;4.708;2023-09-18T02:59:56;42.55;;;36.72;;
19830;SDS011;10076;52.008;4.708;2023-09-18T03:02:21;42.28;;;36.83;;
19830;SDS011;10076;52.008;4.708;2023-09-18T03:04:47;43.35;;;37.45;;
19830;SDS011;10076;52.008;4.708;2023-09-18T03:07:12;43.95;;;35.90;;
19830;SDS011;10076;52.008;4.708;2023-09-18T03:09:38;43.85;;;36.25;;
19830;SDS011;10076;52.008;4.708;2023-09-18T03:12:03;40.70;;;35.53;;
19830;SDS011;10076;52.008;4.708;2023-09-18T03:14:29;46.20;;;36.50;;
19830;SDS011;10076;52.008;4.708;2023-09-18T03:16:54;43.10;;;36.55;;
19830;SDS011;10076;52.008;4.708;2023-09-18T03:19:19;41.88;;;36.17;;
19830;SDS011;10076;52.008;4.708;2023-09-18T03:21:47;41.30;;;34.92;;
19830;SDS011;10076;52.008;4.708;2023-09-18T03:24:12;43.83;;;37.03;;
19830;SDS011;10076;52.008;4.708;2023-09-18T03:26:37;43.40;;;35.42;;
19830;SDS011;10076;52.008;4.708;2023-09-18T03:29:03;43.10;;;36.28;;
19830;SDS011;10076;52.008;4.708;2023-09-18T03:31:29;42.15;;;34.38;;
19830;SDS011;10076;52.008;4.708;2023-09-18T03:33:55;40.45;;;34.67;;
19830;SDS011;10076;52.008;4.708;2023-09-18T03:36:23;41.50;;;35.25;;
19830;SDS011;10076;52.008;4.708;2023-09-18T03:38:49;47.03;;;38.25;;
19830;SDS011;10076;52.008;4.708;2023-09-18T03:41:14;49.65;;;40.50;;
19830;SDS011;10076;52.008;4.708;2023-09-18T03:43:39;46.30;;;39.47;;
19830;SDS011;10076;52.008;4.708;2023-09-18T03:46:05;46.78;;;40.97;;
19830;SDS011;10076;52.008;4.708;2023-09-18T03:48:33;46.85;;;41.83;;
19830;SDS011;10076;52.008;4.708;2023-09-18T03:51:05;43.05;;;37.67;;
19830;SDS011;10076;52.008;4.708;2023-09-18T03:53:32;45.58;;;39.92;;
19830;SDS011;10076;52.008;4.708;2023-09-18T03:55:58;47.78;;;42.17;;
19830;SDS011;10076;52.008;4.708;2023-09-18T03:58:23;46.50;;;41.22;;
19830;SDS011;10076;52.008;4.708;2023-09-18T04:00:49;45.42;;;40.42;;
19830;SDS011;10076;52.008;4.708;2023-09-18T04:03:14;46.03;;;40.67;;
19830;SDS011;10076;52.008;4.708;2023-09-18T04:05:39;43.97;;;39.17;;
19830;SDS011;10076;52.008;4.708;2023-09-18T04:08:05;43.03;;;38.42;;
19830;SDS011;10076;52.008;4.708;2023-09-18T04:10:30;45.47;;;40.53;;
19830;SDS011;10076;52.008;4.708;2023-09-18T04:12:55;44.75;;;40.08;;
19830;SDS011;10076;52.008;4.708;2023-09-18T04:15:22;40.45;;;36.25;;
19830;SDS011;10076;52.008;4.708;2023-09-18T04:17:48;43.58;;;39.08;;
19830;SDS011;10076;52.008;4.708;2023-09-18T04:20:13;43.20;;;38.75;;
19830;SDS011;10076;52.008;4.708;2023-09-18T04:22:46;42.08;;;37.67;;
19830;SDS011;10076;52.008;4.708;2023-09-18T04:25:15;42.97;;;38.40;;
19830;SDS011;10076;52.008;4.708;2023-09-18T04:27:41;46.83;;;42.42;;
19830;SDS011;10076;52.008;4.708;2023-09-18T04:30:07;45.08;;;40.65;;
19830;SDS011;10076;52.008;4.708;2023-09-18T04:32:34;44.13;;;39.83;;
19830;SDS011;10076;52.008;4.708;2023-09-18T04:35:02;41.95;;;37.55;;
19830;SDS011;10076;52.008;4.708;2023-09-18T04:37:30;48.15;;;43.20;;
19830;SDS011;10076;52.008;4.708;2023-09-18T04:39:57;47.72;;;43.25;;
19830;SDS011;10076;52.008;4.708;2023-09-18T04:42:22;49.33;;;44.80;;
19830;SDS011;10076;52.008;4.708;2023-09-18T04:44:48;45.70;;;41.30;;
19830;SDS011;10076;52.008;4.708;2023-09-18T04:47:13;45.03;;;40.65;;
19830;SDS011;10076;52.008;4.708;2023-09-18T04:49:38;48.20;;;43.40;;
19830;SDS011;10076;52.008;4.708;2023-09-18T04:52:04;42.80;;;38.40;;
19830;SDS011;10076;52.008;4.708;2023-09-18T04:54:30;46.33;;;42.10;;
19830;SDS011;10076;52.008;4.708;2023-09-18T04:56:56;45.38;;;41.08;;
19830;SDS011;10076;52.008;4.708;2023-09-18T04:59:21;43.25;;;39.05;;
19830;SDS011;10076;52.008;4.708;2023-09-18T05:01:46;47.03;;;42.33;;
19830;SDS011;10076;52.008;4.708;2023-09-18T05:04:12;44.45;;;39.95;;
19830;SDS011;10076;52.008;4.708;2023-09-18T05:06:37;44.35;;;40.10;;
19830;SDS011;10076;52.008;4.708;2023-09-18T05:09:04;46.75;;;42.05;;
19830;SDS011;10076;52.008;4.708;2023-09-18T05:11:30;51.70;;;46.85;;
19830;SDS011;10076;52.008;4.708;2023-09-18T05:13:56;50.22;;;45.42;;
19830;SDS011;10076;52.008;4.708;2023-09-18T05:16:21;60.10;;;54.90;;
19830;SDS011;10076;52.008;4.708;2023-09-18T05:18:47;56.25;;;51.15;;
19830;SDS011;10076;52.008;4.708;2023-09-18T05:21:12;59.33;;;54.33;;
19830;SDS011;10076;52.008;4.708;2023-09-18T05:23:37;59.25;;;54.05;;
19830;SDS011;10076;52.008;4.708;2023-09-18T05:26:03;58.30;;;53.05;;
19830;SDS011;10076;52.008;4.708;2023-09-18T05:28:29;55.47;;;50.53;;
19830;SDS011;10076;52.008;4.708;2023-09-18T05:30:55;58.70;;;53.53;;
19830;SDS011;10076;52.008;4.708;2023-09-18T05:33:20;56.90;;;51.75;;
19830;SDS011;10076;52.008;4.708;2023-09-18T05:35:45;55.90;;;50.78;;
19830;SDS011;10076;52.008;4.708;2023-09-18T05:38:11;57.95;;;52.85;;
19830;SDS011;10076;52.008;4.708;2023-09-18T05:40:41;51.20;;;46.30;;
19830;SDS011;10076;52.008;4.708;2023-09-18T05:43:08;56.00;;;51.00;;
19830;SDS011;10076;52.008;4.708;2023-09-18T05:45:35;53.53;;;48.53;;
19830;SDS011;10076;52.008;4.708;2023-09-18T05:48:00;56.20;;;51.30;;
19830;SDS011;10076;52.008;4.708;2023-09-18T05:50:32;53.67;;;48.78;;
19830;SDS011;10076;52.008;4.708;2023-09-18T05:53:00;46.47;;;41.88;;
19830;SDS011;10076;52.008;4.708;2023-09-18T05:55:28;44.72;;;39.83;;
19830;SDS011;10076;52.008;4.708;2023-09-18T05:57:54;45.03;;;40.40;;
19830;SDS011;10076;52.008;4.708;2023-09-18T06:00:19;45.35;;;40.78;;
19830;SDS011;10076;52.008;4.708;2023-09-18T06:02:46;46.10;;;41.40;;
19830;SDS011;10076;52.008;4.708;2023-09-18T06:05:12;49.17;;;44.40;;
19830;SDS011;10076;52.008;4.708;2023-09-18T06:07:37;47.58;;;42.67;;
19830;SDS011;10076;52.008;4.708;2023-09-18T06:10:03;50.00;;;45.17;;
19830;SDS011;10076;52.008;4.708;2023-09-18T06:12:29;47.22;;;42.67;;
19830;SDS011;10076;52.008;4.708;2023-09-18T06:14:55;51.70;;;46.70;;
19830;SDS011;10076;52.008;4.708;2023-09-18T06:17:20;49.95;;;44.72;;
19830;SDS011;10076;52.008;4.708;2023-09-18T06:19:45;53.30;;;48.38;;
19830;SDS011;10076;52.008;4.708;2023-09-18T06:22:11;50.65;;;45.85;;
19830;SDS011;10076;52.008;4.708;2023-09-18T06:24:37;48.38;;;43.65;;
19830;SDS011;10076;52.008;4.708;2023-09-18T06:27:03;47.30;;;42.55;;
19830;SDS011;10076;52.008;4.708;2023-09-18T06:29:32;47.08;;;42.53;;
19830;SDS011;10076;52.008;4.708;2023-09-18T06:31:58;49.40;;;44.60;;
19830;SDS011;10076;52.008;4.708;2023-09-18T06:34:23;46.83;;;42.13;;
19830;SDS011;10076;52.008;4.708;2023-09-18T06:36:48;45.10;;;40.50;;
19830;SDS011;10076;52.008;4.708;2023-09-18T06:39:14;46.00;;;40.92;;
19830;SDS011;10076;52.008;4.708;2023-09-18T06:41:40;45.05;;;40.40;;
19830;SDS011;10076;52.008;4.708;2023-09-18T06:44:05;42.78;;;38.28;;
19830;SDS011;10076;52.008;4.708;2023-09-18T06:46:30;44.67;;;40.08;;
19830;SDS011;10076;52.008;4.708;2023-09-18T06:48:56;46.50;;;41.78;;
19830;SDS011;10076;52.008;4.708;2023-09-18T06:51:22;42.65;;;38.17;;
19830;SDS011;10076;52.008;4.708;2023-09-18T06:53:48;44.08;;;39.38;;
19830;SDS011;10076;52.008;4.708;2023-09-18T06:56:13;43.85;;;39.33;;
19830;SDS011;10076;52.008;4.708;2023-09-18T06:58:39;45.13;;;40.42;;
19830;SDS011;10076;52.008;4.708;2023-09-18T07:01:04;45.25;;;40.53;;
19830;SDS011;10076;52.008;4.708;2023-09-18T07:03:34;46.97;;;42.10;;
19830;SDS011;10076;52.008;4.708;2023-09-18T07:06:01;43.65;;;39.15;;
19830;SDS011;10076;52.008;4.708;2023-09-18T07:08:27;44.95;;;40.45;;
19830;SDS011;10076;52.008;4.708;2023-09-18T07:10:52;45.45;;;40.95;;
19830;SDS011;10076;52.008;4.708;2023-09-18T07:13:17;47.97;;;43.03;;
19830;SDS011;10076;52.008;4.708;2023-09-18T07:15:43;42.88;;;37.20;;
19830;SDS011;10076;52.008;4.708;2023-09-18T07:18:09;40.97;;;35.35;;
19830;SDS011;10076;52.008;4.708;2023-09-18T07:20:38;43.30;;;38.70;;
19830;SDS011;10076;52.008;4.708;2023-09-18T07:23:05;44.45;;;39.97;;
19830;SDS011;10076;52.008;4.708;2023-09-18T07:25:30;49.28;;;44.38;;
19830;SDS011;10076;52.008;4.708;2023-09-18T07:27:55;46.25;;;41.75;;
19830;SDS011;10076;52.008;4.708;2023-09-18T07:30:20;47.20;;;42.33;;
19830;SDS011;10076;52.008;4.708;2023-09-18T07:32:47;44.05;;;39.40;;
19830;SDS011;10076;52.008;4.708;2023-09-18T07:35:12;45.38;;;40.92;;
19830;SDS011;10076;52.008;4.708;2023-09-18T07:37:40;45.92;;;41.45;;
19830;SDS011;10076;52.008;4.708;2023-09-18T07:40:06;41.92;;;37.53;;
19830;SDS011;10076;52.008;4.708;2023-09-18T07:42:32;42.03;;;37.53;;
19830;SDS011;10076;52.008;4.708;2023-09-18T07:44:58;42.85;;;38.22;;
19830;SDS011;10076;52.008;4.708;2023-09-18T07:47:23;45.10;;;40.55;;
19830;SDS011;10076;52.008;4.708;2023-09-18T07:49:49;44.53;;;39.83;;
19830;SDS011;10076;52.008;4.708;2023-09-18T07:52:15;44.92;;;40.38;;
19830;SDS011;10076;52.008;4.708;2023-09-18T07:54:41;44.85;;;40.38;;
19830;SDS011;10076;52.008;4.708;2023-09-18T07:57:07;43.75;;;39.25;;
19830;SDS011;10076;52.008;4.708;2023-09-18T07:59:34;40.25;;;35.88;;
19830;SDS011;10076;52.008;4.708;2023-09-18T08:02:00;39.10;;;34.90;;
19830;SDS011;10076;52.008;4.708;2023-09-18T08:04:25;41.08;;;34.70;;
19830;SDS011;10076;52.008;4.708;2023-09-18T08:06:50;39.53;;;34.08;;
19830;SDS011;10076;52.008;4.708;2023-09-18T08:09:16;41.78;;;35.28;;
19830;SDS011;10076;52.008;4.708;2023-09-18T08:11:42;41.22;;;36.63;;
19830;SDS011;10076;52.008;4.708;2023-09-18T08:14:08;41.33;;;36.90;;
19830;SDS011;10076;52.008;4.708;2023-09-18T08:16:34;40.88;;;36.13;;
19830;SDS011;10076;52.008;4.708;2023-09-18T08:19:03;40.75;;;36.28;;
19830;SDS011;10076;52.008;4.708;2023-09-18T08:21:28;41.38;;;36.88;;
19830;SDS011;10076;52.008;4.708;2023-09-18T08:23:54;41.22;;;36.67;;
19830;SDS011;10076;52.008;4.708;2023-09-18T08:26:20;40.83;;;36.55;;
19830;SDS011;10076;52.008;4.708;2023-09-18T08:28:46;41.30;;;37.00;;
19830;SDS011;10076;52.008;4.708;2023-09-18T08:31:12;42.88;;;38.38;;
19830;SDS011;10076;52.008;4.708;2023-09-18T08:33:37;42.65;;;38.05;;
19830;SDS011;10076;52.008;4.708;2023-09-18T08:36:02;41.10;;;36.80;;
19830;SDS011;10076;52.008;4.708;2023-09-18T08:38:28;41.60;;;37.20;;
19830;SDS011;10076;52.008;4.708;2023-09-18T08:40:54;41.70;;;36.53;;
19830;SDS011;10076;52.008;4.708;2023-09-18T08:43:20;44.40;;;39.85;;
19830;SDS011;10076;52.008;4.708;2023-09-18T08:45:53;42.22;;;37.83;;
19830;SDS011;10076;52.008;4.708;2023-09-18T08:48:20;43.30;;;39.00;;
19830;SDS011;10076;52.008;4.708;2023-09-18T08:50:46;45.08;;;40.60;;
19830;SDS011;10076;52.008;4.708;2023-09-18T08:53:13;45.30;;;40.92;;
19830;SDS011;10076;52.008;4.708;2023-09-18T08:55:39;41.92;;;37.65;;
19830;SDS011;10076;52.008;4.708;2023-09-18T08:58:06;45.20;;;40.80;;
19830;SDS011;10076;52.008;4.708;2023-09-18T09:00:32;43.65;;;39.05;;
19830;SDS011;10076;52.008;4.708;2023-09-18T09:03:00;47.17;;;42.67;;
19830;SDS011;10076;52.008;4.708;2023-09-18T09:05:25;44.95;;;40.42;;
19830;SDS011;10076;52.008;4.708;2023-09-18T09:07:51;50.05;;;44.70;;
19830;SDS011;10076;52.008;4.708;2023-09-18T09:10:17;50.28;;;45.75;;
19830;SDS011;10076;52.008;4.708;2023-09-18T09:12:56;44.65;;;40.25;;
19830;SDS011;10076;52.008;4.708;2023-09-18T09:15:23;44.63;;;40.53;;
19830;SDS011;10076;52.008;4.708;2023-09-18T09:17:52;46.80;;;42.10;;
19830;SDS011;10076;52.008;4.708;2023-09-18T09:20:26;48.47;;;44.08;;
19830;SDS011;10076;52.008;4.708;2023-09-18T09:22:51;45.47;;;40.90;;
19830;SDS011;10076;52.008;4.708;2023-09-18T09:25:27;48.10;;;43.67;;
19830;SDS011;10076;52.008;4.708;2023-09-18T09:27:56;46.97;;;42.60;;
19830;SDS011;10076;52.008;4.708;2023-09-18T09:30:23;48.10;;;43.80;;
19830;SDS011;10076;52.008;4.708;2023-09-18T09:32:51;49.72;;;45.28;;
19830;SDS011;10076;52.008;4.708;2023-09-18T09:35:27;52.72;;;47.42;;
19830;SDS011;10076;52.008;4.708;2023-09-18T09:37:57;47.75;;;43.47;;
19830;SDS011;10076;52.008;4.708;2023-09-18T09:40:32;49.13;;;44.70;;
19830;SDS011;10076;52.008;4.708;2023-09-18T09:43:00;45.80;;;41.90;;
19830;SDS011;10076;52.008;4.708;2023-09-18T09:45:29;46.58;;;42.85;;
19830;SDS011;10076;52.008;4.708;2023-09-18T09:48:00;49.45;;;45.35;;
19830;SDS011;10076;52.008;4.708;2023-09-18T09:50:26;46.90;;;43.05;;
19830;SDS011;10076;52.008;4.708;2023-09-18T09:52:52;46.15;;;42.45;;
19830;SDS011;10076;52.008;4.708;2023-09-18T09:55:23;45.03;;;40.50;;
19830;SDS011;10076;52.008;4.708;2023-09-18T09:57:54;43.55;;;40.10;;
19830;SDS011;10076;52.008;4.708;2023-09-18T10:00:23;44.20;;;40.60;;
19830;SDS011;10076;52.008;4.708;2023-09-18T10:02:56;43.15;;;39.30;;
19830;SDS011;10076;52.008;4.708;2023-09-18T10:05:28;39.28;;;35.80;;
19830;SDS011;10076;52.008;4.708;2023-09-18T10:07:59;39.67;;;36.38;;
19830;SDS011;10076;52.008;4.708;2023-09-18T10:10:31;39.95;;;36.65;;
19830;SDS011;10076;52.008;4.708;2023-09-18T10:13:09;40.17;;;36.95;;
19830;SDS011;10076;52.008;4.708;2023-09-18T10:15:37;40.72;;;37.53;;
19830;SDS011;10076;52.008;4.708;2023-09-18T10:18:07;41.10;;;38.00;;
19830;SDS011;10076;52.008;4.708;2023-09-18T10:20:51;40.90;;;37.80;;
19830;SDS011;10076;52.008;4.708;2023-09-18T10:24:01;41.38;;;38.28;;
19830;SDS011;10076;52.008;4.708;2023-09-18T10:26:19;42.28;;;38.80;;
19830;SDS011;10076;52.008;4.708;2023-09-18T10:28:55;39.42;;;36.38;;
19830;SDS011;10076;52.008;4.708;2023-09-18T10:31:26;40.78;;;37.47;;
19830;SDS011;10076;52.008;4.708;2023-09-18T10:33:52;40.88;;;37.97;;
19830;SDS011;10076;52.008;4.708;2023-09-18T10:36:19;34.63;;;32.03;;
19830;SDS011;10076;52.008;4.708;2023-09-18T10:38:46;38.35;;;35.65;;
19830;SDS011;10076;52.008;4.708;2023-09-18T10:41:15;37.35;;;34.72;;
19830;SDS011;10076;52.008;4.708;2023-09-18T10:43:45;35.25;;;32.75;;
19830;SDS011;10076;52.008;4.708;2023-09-18T10:46:12;36.30;;;33.22;;
19830;SDS011;10076;52.008;4.708;2023-09-18T10:48:39;34.63;;;32.38;;
19830;SDS011;10076;52.008;4.708;2023-09-18T10:51:07;32.72;;;30.35;;
19830;SDS011;10076;52.008;4.708;2023-09-18T10:53:33;29.83;;;27.92;;
19830;SDS011;10076;52.008;4.708;2023-09-18T10:56:00;25.88;;;24.00;;
19830;SDS011;10076;52.008;4.708;2023-09-18T10:58:29;24.83;;;23.20;;
19830;SDS011;10076;52.008;4.708;2023-09-18T11:00:54;25.10;;;23.30;;
19830;SDS011;10076;52.008;4.708;2023-09-18T11:03:22;24.90;;;22.98;;
19830;SDS011;10076;52.008;4.708;2023-09-18T11:05:48;23.85;;;21.85;;
19830;SDS011;10076;52.008;4.708;2023-09-18T11:08:29;21.25;;;19.73;;
19830;SDS011;10076;52.008;4.708;2023-09-18T11:11:08;21.27;;;19.67;;
19830;SDS011;10076;52.008;4.708;2023-09-18T11:13:40;22.67;;;20.58;;
19830;SDS011;10076;52.008;4.708;2023-09-18T11:21:31;21.35;;;19.77;;
19830;SDS011;10076;52.008;4.708;2023-09-18T11:24:05;23.10;;;21.30;;
19830;SDS011;10076;52.008;4.708;2023-09-18T11:26:37;23.88;;;21.60;;
19830;SDS011;10076;52.008;4.708;2023-09-18T11:29:09;24.40;;;22.52;;
19830;SDS011;10076;52.008;4.708;2023-09-18T11:31:46;22.80;;;20.83;;
19830;SDS011;10076;52.008;4.708;2023-09-18T11:34:24;21.70;;;20.10;;
19830;SDS011;10076;52.008;4.708;2023-09-18T11:37:18;21.85;;;20.25;;
19830;SDS011;10076;52.008;4.708;2023-09-18T11:39:44;21.30;;;19.60;;
19830;SDS011;10076;52.008;4.708;2023-09-18T11:42:17;20.40;;;18.70;;
19830;SDS011;10076;52.008;4.708;2023-09-18T11:44:44;20.13;;;18.63;;
19830;SDS011;10076;52.008;4.708;2023-09-18T11:47:13;20.00;;;18.42;;
19830;SDS011;10076;52.008;4.708;2023-09-18T11:49:54;20.25;;;18.65;;
19830;SDS011;10076;52.008;4.708;2023-09-18T11:52:25;19.17;;;17.73;;
19830;SDS011;10076;52.008;4.708;2023-09-18T11:54:59;18.95;;;17.55;;
19830;SDS011;10076;52.008;4.708;2023-09-18T11:57:25;18.75;;;17.45;;
19830;SDS011;10076;52.008;4.708;2023-09-18T11:59:52;18.23;;;16.80;;
19830;SDS011;10076;52.008;4.708;2023-09-18T12:02:27;17.65;;;16.45;;
19830;SDS011;10076;52.008;4.708;2023-09-18T12:05:04;18.30;;;16.90;;
19830;SDS011;10076;52.008;4.708;2023-09-18T12:07:31;17.35;;;16.15;;
19830;SDS011;10076;52.008;4.708;2023-09-18T12:09:57;17.52;;;16.13;;
19830;SDS011;10076;52.008;4.708;2023-09-18T12:12:22;17.70;;;16.40;;
19830;SDS011;10076;52.008;4.708;2023-09-18T12:14:48;17.85;;;16.65;;
19830;SDS011;10076;52.008;4.708;2023-09-18T12:17:14;18.23;;;17.02;;
19830;SDS011;10076;52.008;4.708;2023-09-18T12:19:53;17.90;;;16.70;;
19830;SDS011;10076;52.008;4.708;2023-09-18T12:22:25;18.08;;;16.70;;
19830;SDS011;10076;52.008;4.708;2023-09-18T12:25:13;17.73;;;16.55;;
19830;SDS011;10076;52.008;4.708;2023-09-18T12:27:40;18.00;;;16.60;;
19830;SDS011;10076;52.008;4.708;2023-09-18T12:30:06;18.02;;;16.73;;
19830;SDS011;10076;52.008;4.708;2023-09-18T12:32:35;17.52;;;16.33;;
19830;SDS011;10076;52.008;4.708;2023-09-18T12:35:02;18.58;;;17.17;;
19830;SDS011;10076;52.008;4.708;2023-09-18T12:37:31;18.77;;;17.35;;
19830;SDS011;10076;52.008;4.708;2023-09-18T12:39:57;18.30;;;17.00;;
19830;SDS011;10076;52.008;4.708;2023-09-18T12:42:22;17.90;;;16.52;;
19830;SDS011;10076;52.008;4.708;2023-09-18T12:44:48;18.45;;;17.13;;
19830;SDS011;10076;52.008;4.708;2023-09-18T12:47:15;18.10;;;16.85;;
19830;SDS011;10076;52.008;4.708;2023-09-18T12:49:41;17.55;;;16.35;;
19830;SDS011;10076;52.008;4.708;2023-09-18T12:52:06;18.40;;;17.00;;
19830;SDS011;10076;52.008;4.708;2023-09-18T12:54:38;18.17;;;16.92;;
19830;SDS011;10076;52.008;4.708;2023-09-18T12:57:07;18.35;;;17.15;;
19830;SDS011;10076;52.008;4.708;2023-09-18T12:59:35;18.45;;;17.15;;
19830;SDS011;10076;52.008;4.708;2023-09-18T13:02:01;18.30;;;17.00;;
19830;SDS011;10076;52.008;4.708;2023-09-18T13:04:29;21.05;;;19.35;;
19830;SDS011;10076;52.008;4.708;2023-09-18T13:09:35;18.25;;;17.00;;
19830;SDS011;10076;52.008;4.708;2023-09-18T13:12:02;18.20;;;17.00;;
19830;SDS011;10076;52.008;4.708;2023-09-18T13:14:28;18.00;;;16.70;;
19830;SDS011;10076;52.008;4.708;2023-09-18T13:17:00;17.90;;;16.67;;
19830;SDS011;10076;52.008;4.708;2023-09-18T13:19:28;18.02;;;16.73;;
19830;SDS011;10076;52.008;4.708;2023-09-18T13:21:53;17.23;;;16.13;;
19830;SDS011;10076;52.008;4.708;2023-09-18T13:24:29;17.00;;;15.90;;
19830;SDS011;10076;52.008;4.708;2023-09-18T13:26:56;17.48;;;16.27;;
19830;SDS011;10076;52.008;4.708;2023-09-18T13:29:23;17.40;;;16.20;;
19830;SDS011;10076;52.008;4.708;2023-09-18T13:31:50;17.02;;;15.82;;
19830;SDS011;10076;52.008;4.708;2023-09-18T13:34:16;17.27;;;16.08;;
19830;SDS011;10076;52.008;4.708;2023-09-18T13:36:44;16.92;;;15.75;;
19830;SDS011;10076;52.008;4.708;2023-09-18T13:39:10;17.23;;;16.13;;
19830;SDS011;10076;52.008;4.708;2023-09-18T13:41:37;17.85;;;16.52;;
19830;SDS011;10076;52.008;4.708;2023-09-18T13:44:03;17.70;;;16.50;;
19830;SDS011;10076;52.008;4.708;2023-09-18T13:46:28;17.70;;;16.50;;
19830;SDS011;10076;52.008;4.708;2023-09-18T13:48:53;17.58;;;16.38;;
19830;SDS011;10076;52.008;4.708;2023-09-18T13:51:19;17.75;;;16.55;;
19830;SDS011;10076;52.008;4.708;2023-09-18T13:53:44;18.08;;;16.88;;
19830;SDS011;10076;52.008;4.708;2023-09-18T13:56:09;18.63;;;17.23;;
19830;SDS011;10076;52.008;4.708;2023-09-18T13:58:35;18.05;;;16.73;;
19830;SDS011;10076;52.008;4.708;2023-09-18T14:01:06;18.52;;;17.23;;
19830;SDS011;10076;52.008;4.708;2023-09-18T14:03:32;18.23;;;17.02;;
19830;SDS011;10076;52.008;4.708;2023-09-18T14:05:57;18.90;;;17.60;;
19830;SDS011;10076;52.008;4.708;2023-09-18T14:08:23;19.08;;;17.67;;
19830;SDS011;10076;52.008;4.708;2023-09-18T14:10:48;18.25;;;16.95;;
19830;SDS011;10076;52.008;4.708;2023-09-18T14:13:13;18.15;;;16.95;;
19830;SDS011;10076;52.008;4.708;2023-09-18T14:15:39;19.08;;;17.70;;
19830;SDS011;10076;52.008;4.708;2023-09-18T14:18:04;19.13;;;17.65;;
19830;SDS011;10076;52.008;4.708;2023-09-18T14:20:29;18.55;;;17.35;;
19830;SDS011;10076;52.008;4.708;2023-09-18T14:22:55;25.58;;;23.48;;
19830;SDS011;10076;52.008;4.708;2023-09-18T14:25:20;28.92;;;26.92;;
19830;SDS011;10076;52.008;4.708;2023-09-18T14:27:47;31.02;;;28.90;;
19830;SDS011;10076;52.008;4.708;2023-09-18T14:30:12;27.60;;;25.60;;